createdAt,value
2018-11-23T00:00:35.801Z,-0.42
2018-11-23T00:03:05.809Z,-0.44
2018-11-23T00:05:35.885Z,-0.53
2018-11-23T00:08:05.685Z,-0.62
2018-11-23T00:10:35.405Z,-0.61
2018-11-23T00:13:05.234Z,-0.62
2018-11-23T00:15:34.965Z,-0.48
2018-11-23T00:18:04.969Z,-0.43
2018-11-23T00:20:34.729Z,-0.32
2018-11-23T00:23:09.998Z,-0.40
2018-11-23T00:25:39.705Z,-0.43
2018-11-23T00:28:09.441Z,-0.49
2018-11-23T00:30:39.153Z,-0.44
2018-11-23T00:33:08.856Z,-0.43
2018-11-23T00:35:38.565Z,-0.40
2018-11-23T00:38:08.283Z,-0.46
2018-11-23T00:40:38.098Z,-0.37
2018-11-23T00:43:07.871Z,-0.38
2018-11-23T00:45:42.760Z,-0.52
2018-11-23T00:48:07.301Z,-0.59
2018-11-23T00:50:37.046Z,-0.64
2018-11-23T00:53:06.752Z,-0.66
2018-11-23T00:55:36.567Z,-0.72
2018-11-23T00:58:06.245Z,-0.74
2018-11-23T01:00:35.982Z,-0.77
2018-11-23T01:03:06.326Z,-0.88
2018-11-23T01:05:36.053Z,-0.99
2018-11-23T01:08:05.761Z,-1.10
2018-11-23T01:10:35.516Z,-1.17
2018-11-23T01:13:05.692Z,-1.20
2018-11-23T01:15:35.360Z,-1.16
2018-11-23T01:18:05.212Z,-1.17
2018-11-23T01:20:34.888Z,-1.21
2018-11-23T01:23:04.556Z,-1.20
2018-11-23T01:25:34.237Z,-1.24
2018-11-23T01:28:03.930Z,-1.27
2018-11-23T01:30:33.702Z,-1.31
2018-11-23T01:33:03.388Z,-1.25
2018-11-23T01:35:33.060Z,-1.23
2018-11-23T01:38:02.740Z,-1.33
2018-11-23T01:40:32.420Z,-1.37
2018-11-23T01:43:02.108Z,-1.38
2018-11-23T01:45:31.794Z,-1.34
2018-11-23T01:48:01.452Z,-1.41
2018-11-23T01:50:31.232Z,-1.37
2018-11-23T01:53:01.067Z,-1.39
2018-11-23T01:55:30.736Z,-1.44
2018-11-23T01:58:00.416Z,-1.49
2018-11-23T02:00:30.099Z,-1.46
2018-11-23T02:02:59.772Z,-1.47
2018-11-23T02:05:29.440Z,-1.49
2018-11-23T02:07:59.108Z,-1.55
2018-11-23T02:10:28.801Z,-1.49
2018-11-23T02:12:58.559Z,-1.49
2018-11-23T02:15:28.236Z,-1.46
2018-11-23T02:17:57.904Z,-1.50
2018-11-23T02:20:27.600Z,-1.50
2018-11-23T02:22:57.272Z,-1.50
2018-11-23T02:25:26.950Z,-1.53
2018-11-23T02:27:56.727Z,-1.51
2018-11-23T02:30:26.916Z,-1.47
2018-11-23T02:32:56.589Z,-1.38
2018-11-23T02:35:26.284Z,-1.41
2018-11-23T02:37:55.940Z,-1.40
2018-11-23T02:40:25.635Z,-1.39
2018-11-23T02:42:55.296Z,-1.38
2018-11-23T02:45:24.971Z,-1.39
2018-11-23T02:47:54.626Z,-1.40
2018-11-23T02:50:24.307Z,-1.33
2018-11-23T02:52:53.960Z,-1.32
2018-11-23T02:55:23.626Z,-1.32
2018-11-23T02:57:53.303Z,-1.28
2018-11-23T03:00:23.340Z,-1.31
2018-11-23T03:02:53.008Z,-1.35
2018-11-23T03:05:23.788Z,-1.30
2018-11-23T03:07:53.461Z,-1.34
2018-11-23T03:10:23.131Z,-1.35
2018-11-23T03:12:52.808Z,-1.31
2018-11-23T03:15:22.572Z,-1.24
2018-11-23T03:17:52.245Z,-1.20
2018-11-23T03:20:22.609Z,-1.21
2018-11-23T03:22:52.288Z,-1.23
2018-11-23T03:25:21.961Z,-1.16
2018-11-23T03:27:51.647Z,-1.07
2018-11-23T03:30:22.518Z,-1.05
2018-11-23T03:32:52.983Z,-0.94
2018-11-23T03:35:23.205Z,-0.96
2018-11-23T03:37:52.888Z,-0.99
2018-11-23T03:40:22.550Z,-0.97
2018-11-23T03:42:52.351Z,-1.01
2018-11-23T03:45:22.018Z,-0.93
2018-11-23T03:47:51.706Z,-0.99
2018-11-23T03:50:21.368Z,-0.93
2018-11-23T03:52:51.100Z,-1.04
2018-11-23T03:55:20.763Z,-1.03
2018-11-23T03:57:50.444Z,-0.96
2018-11-23T04:00:21.252Z,-1.03
2018-11-23T04:02:51.320Z,-1.00
2018-11-23T04:05:21.096Z,-0.94
2018-11-23T04:07:50.773Z,-1.03
2018-11-23T04:10:20.431Z,-1.15
2018-11-23T04:12:50.092Z,-1.21
2018-11-23T04:15:19.764Z,-1.26
2018-11-23T04:17:49.432Z,-1.29
2018-11-23T04:20:19.162Z,-1.27
2018-11-23T04:22:48.812Z,-1.25
2018-11-23T04:25:18.474Z,-1.18
2018-11-23T04:27:48.165Z,-1.21
2018-11-23T04:30:18.228Z,-1.22
2018-11-23T04:32:48.569Z,-1.11
2018-11-23T04:35:19.180Z,-1.06
2018-11-23T04:37:49.249Z,-1.10
2018-11-23T04:40:19.555Z,-1.01
2018-11-23T04:42:49.212Z,-0.99
2018-11-23T04:45:18.872Z,-0.96
2018-11-23T04:47:48.528Z,-0.91
2018-11-23T04:50:18.200Z,-0.77
2018-11-23T04:52:47.875Z,-0.60
2018-11-23T04:55:17.530Z,-0.53
2018-11-23T04:57:49.769Z,-0.48
2018-11-23T05:00:17.747Z,-0.38
2018-11-23T05:02:47.994Z,-0.26
2018-11-23T05:05:17.652Z,-0.18
2018-11-23T05:07:48.115Z,-0.16
2018-11-23T05:10:18.275Z,-0.04
2018-11-23T05:12:47.990Z,0.02
2018-11-23T05:15:18.399Z,0.04
2018-11-23T05:17:48.244Z,0.19
2018-11-23T05:20:17.973Z,0.19
2018-11-23T05:22:47.617Z,0.20
2018-11-23T05:25:18.239Z,0.24
2018-11-23T05:27:47.925Z,0.26
2018-11-23T05:30:20.008Z,0.31
2018-11-23T05:32:49.668Z,0.33
2018-11-23T05:35:19.464Z,0.29
2018-11-23T05:37:49.135Z,0.31
2018-11-23T05:40:20.063Z,0.23
2018-11-23T05:42:49.719Z,0.25
2018-11-23T05:45:20.788Z,0.26
2018-11-23T05:47:50.592Z,0.21
2018-11-23T05:50:21.853Z,0.19
2018-11-23T05:52:51.667Z,0.21
2018-11-23T05:55:21.345Z,0.16
2018-11-23T05:57:51.459Z,0.23
2018-11-23T06:00:22.695Z,0.17
2018-11-23T06:02:52.452Z,0.10
2018-11-23T06:05:22.095Z,0.06
2018-11-23T06:07:51.771Z,-0.01
2018-11-23T06:10:21.987Z,-0.09
2018-11-23T06:12:51.756Z,-0.15
2018-11-23T06:15:22.511Z,-0.20
2018-11-23T06:17:52.363Z,-0.20
2018-11-23T06:20:23.462Z,-0.27
2018-11-23T06:22:53.920Z,-0.35
2018-11-23T06:25:33.243Z,-0.45
2018-11-23T06:28:02.927Z,-0.54
2018-11-23T06:30:32.595Z,-0.65
2018-11-23T06:33:14.053Z,-0.66
2018-11-23T06:35:43.708Z,-0.67
2018-11-23T06:38:13.376Z,-0.73
2018-11-23T06:40:43.040Z,-0.82
2018-11-23T06:43:12.703Z,-0.79
2018-11-23T06:45:43.696Z,-0.84
2018-11-23T06:48:13.416Z,-0.67
2018-11-23T06:50:43.100Z,-0.83
2018-11-23T06:53:12.778Z,-0.91
2018-11-23T06:55:42.484Z,-0.99
2018-11-23T06:58:12.160Z,-0.98
2018-11-23T07:00:41.819Z,-1.11
2018-11-23T07:03:11.503Z,-1.24
2018-11-23T07:05:41.180Z,-1.26
2018-11-23T07:08:11.490Z,-1.30
2018-11-23T07:10:41.164Z,-1.28
2018-11-23T07:13:10.945Z,-1.30
2018-11-23T07:15:40.744Z,-1.09
2018-11-23T07:18:10.467Z,-1.28
2018-11-23T07:20:40.163Z,-1.29
2018-11-23T07:23:09.839Z,-1.35
2018-11-23T07:25:39.512Z,-1.20
2018-11-23T07:28:15.399Z,-1.19
2018-11-23T07:30:38.856Z,-1.19
2018-11-23T07:33:08.520Z,-1.12
2018-11-23T07:35:38.172Z,-1.06
2018-11-23T07:38:07.840Z,-1.02
2018-11-23T07:40:49.872Z,-1.03
2018-11-23T07:43:19.532Z,-0.96
2018-11-23T07:45:49.386Z,-0.94
2018-11-23T07:48:19.058Z,-0.86
2018-11-23T07:50:48.731Z,-0.85
2018-11-23T07:53:18.390Z,-0.84
2018-11-23T07:55:48.067Z,-0.71
2018-11-23T07:58:17.728Z,-0.70
2018-11-23T08:00:47.385Z,-0.67
2018-11-23T08:03:17.056Z,-0.60
2018-11-23T08:05:46.833Z,-0.53
2018-11-23T08:08:16.531Z,-0.43
2018-11-23T08:10:45.408Z,-0.35
2018-11-23T08:13:15.074Z,-0.30
2018-11-23T08:15:44.759Z,-0.20
2018-11-23T08:18:14.451Z,-0.01
2018-11-23T08:20:44.135Z,0.05
2018-11-23T08:23:13.803Z,0.17
2018-11-23T08:25:43.471Z,0.19
2018-11-23T08:28:13.184Z,0.30
2018-11-23T08:30:42.855Z,0.44
2018-11-23T08:33:12.510Z,0.46
2018-11-23T08:35:42.232Z,0.38
2018-11-23T08:38:11.893Z,0.30
2018-11-23T08:40:41.583Z,0.26
2018-11-23T08:43:11.237Z,0.34
2018-11-23T08:45:40.907Z,0.38
2018-11-23T08:48:10.561Z,0.42
2018-11-23T08:50:40.223Z,0.47
2018-11-23T08:53:09.874Z,0.53
2018-11-23T08:55:39.528Z,0.59
2018-11-23T08:58:09.204Z,0.55
2018-11-23T09:00:38.907Z,0.58
2018-11-23T09:03:08.607Z,0.82
2018-11-23T09:05:38.284Z,0.84
2018-11-23T09:08:07.945Z,0.85
2018-11-23T09:10:37.625Z,0.95
2018-11-23T09:13:07.272Z,1.15
2018-11-23T09:15:36.941Z,1.14
2018-11-23T09:18:06.595Z,1.18
2018-11-23T09:20:36.480Z,0.98
2018-11-23T09:23:06.139Z,1.04
2018-11-23T09:25:36.248Z,1.02
2018-11-23T09:28:05.910Z,1.13
2018-11-23T09:30:35.576Z,1.19
2018-11-23T09:33:05.232Z,1.19
2018-11-23T09:35:34.956Z,1.17
2018-11-23T09:38:04.621Z,1.20
2018-11-23T09:40:34.379Z,1.32
2018-11-23T09:43:04.011Z,1.39
2018-11-23T09:45:34.453Z,1.39
2018-11-23T09:48:05.013Z,1.51
2018-11-23T09:50:34.789Z,1.69
2018-11-23T09:53:05.138Z,1.74
2018-11-23T09:55:36.202Z,1.72
2018-11-23T09:58:05.925Z,1.89
2018-11-23T10:00:36.848Z,1.88
2018-11-23T10:03:06.996Z,1.91
2018-11-23T10:05:37.076Z,1.92
2018-11-23T10:08:07.529Z,1.98
2018-11-23T10:10:37.196Z,2.01
2018-11-23T10:13:06.868Z,2.10
2018-11-23T10:15:37.179Z,2.23
2018-11-23T10:18:06.833Z,2.34
2018-11-23T10:20:36.559Z,2.52
2018-11-23T10:23:06.264Z,2.51
2018-11-23T10:25:37.071Z,2.63
2018-11-23T10:28:06.726Z,2.60
2018-11-23T10:30:36.951Z,2.69
2018-11-23T10:33:07.378Z,2.73
2018-11-23T10:35:37.207Z,2.78
2018-11-23T10:38:07.304Z,2.81
2018-11-23T10:40:38.671Z,2.83
2018-11-23T10:43:08.698Z,3.00
2018-11-23T10:45:38.908Z,3.04
2018-11-23T10:48:09.246Z,3.09
2018-11-23T10:50:40.453Z,3.10
2018-11-23T10:53:10.140Z,3.20
2018-11-23T10:55:39.793Z,3.34
2018-11-23T10:58:09.460Z,3.49
2018-11-23T11:00:44.491Z,3.68
2018-11-23T11:03:33.412Z,3.85
2018-11-23T11:06:11.041Z,3.96
2018-11-23T11:08:41.047Z,4.04
2018-11-23T11:11:13.681Z,4.20
2018-11-23T11:13:40.692Z,4.19
2018-11-23T11:19:03.315Z,4.21
2018-11-23T11:21:32.993Z,4.35
2018-11-23T11:24:02.900Z,4.43
2018-11-23T11:26:32.570Z,4.52
2018-11-23T11:29:02.228Z,4.57
2018-11-23T11:31:31.899Z,4.70
2018-11-23T11:34:01.548Z,4.65
2018-11-23T11:36:31.216Z,4.86
2018-11-23T11:39:00.880Z,4.96
2018-11-23T11:41:30.547Z,4.98
2018-11-23T11:44:00.215Z,4.97
2018-11-23T11:46:29.874Z,5.11
2018-11-23T11:48:59.604Z,5.19
2018-11-23T11:51:29.272Z,5.19
2018-11-23T11:53:58.923Z,5.23
2018-11-23T11:56:28.591Z,5.38
2018-11-23T11:58:58.239Z,5.29
2018-11-23T12:01:28.041Z,5.37
2018-11-23T12:03:57.837Z,5.43
2018-11-23T12:06:27.492Z,5.52
2018-11-23T12:08:57.208Z,5.64
2018-11-23T12:11:26.875Z,5.64
2018-11-23T12:13:56.539Z,5.65
2018-11-23T12:16:26.321Z,5.55
2018-11-23T12:18:55.977Z,5.50
2018-11-23T12:21:25.635Z,5.60
2018-11-23T12:23:55.492Z,5.80
2018-11-23T12:26:25.153Z,5.87
2018-11-23T12:28:54.824Z,5.78
2018-11-23T12:31:24.591Z,5.91
2018-11-23T12:33:54.260Z,5.76
2018-11-23T12:36:23.943Z,5.98
2018-11-23T12:38:53.616Z,6.04
2018-11-23T12:41:23.284Z,6.03
2018-11-23T12:43:52.951Z,6.05
2018-11-23T12:46:22.627Z,6.08
2018-11-23T12:48:52.306Z,6.08
2018-11-23T12:51:21.967Z,6.11
2018-11-23T12:53:51.683Z,6.15
2018-11-23T12:56:21.520Z,6.27
2018-11-23T12:58:51.220Z,6.30
2018-11-23T13:01:20.929Z,6.28
2018-11-23T13:03:50.599Z,6.40
2018-11-23T13:06:20.247Z,6.45
2018-11-23T13:08:49.917Z,6.55
2018-11-23T13:11:19.589Z,6.37
2018-11-23T13:13:49.316Z,6.30
2018-11-23T13:16:18.968Z,6.23
2018-11-23T13:18:48.663Z,6.37
2018-11-23T13:21:18.315Z,6.44
2018-11-23T13:23:48.033Z,6.39
2018-11-23T13:26:17.686Z,6.38
2018-11-23T13:28:47.373Z,6.47
2018-11-23T13:31:17.024Z,6.43
2018-11-23T13:33:46.680Z,6.42
2018-11-23T13:36:16.332Z,6.40
2018-11-23T13:38:45.998Z,6.44
2018-11-23T13:41:15.768Z,6.45
2018-11-23T13:43:45.445Z,6.46
2018-11-23T13:46:15.095Z,6.38
2018-11-23T13:48:44.777Z,6.41
2018-11-23T13:51:14.420Z,6.38
2018-11-23T13:53:44.105Z,6.24
2018-11-23T13:56:13.795Z,6.16
2018-11-23T13:58:43.457Z,6.04
2018-11-23T14:01:13.127Z,6.01
2018-11-23T14:03:43.284Z,6.02
2018-11-23T14:06:12.912Z,6.00
2018-11-23T14:08:42.571Z,5.95
2018-11-23T14:11:12.247Z,5.94
2018-11-23T14:13:42.589Z,5.92
2018-11-23T14:16:12.316Z,5.78
2018-11-23T14:18:41.985Z,5.68
2018-11-23T14:21:11.652Z,5.61
2018-11-23T14:23:41.728Z,5.59
2018-11-23T14:26:11.390Z,5.55
2018-11-23T14:28:41.039Z,5.50
2018-11-23T14:31:10.700Z,5.33
2018-11-23T14:33:40.350Z,5.26
2018-11-23T14:36:10.147Z,5.19
2018-11-23T14:38:39.792Z,5.09
2018-11-23T14:41:09.520Z,4.95
2018-11-23T14:43:39.168Z,4.84
2018-11-23T14:46:08.824Z,4.65
2018-11-23T14:48:38.466Z,4.61
2018-11-23T14:51:08.161Z,4.56
2018-11-23T14:53:37.821Z,4.42
2018-11-23T14:56:07.545Z,4.18
2018-11-23T14:58:37.201Z,4.20
2018-11-23T15:01:06.860Z,4.10
2018-11-23T15:03:36.610Z,3.99
2018-11-23T15:06:06.284Z,3.87
2018-11-23T15:08:35.949Z,3.98
2018-11-23T15:11:06.128Z,3.85
2018-11-23T15:13:35.800Z,3.64
2018-11-23T15:16:05.527Z,3.56
2018-11-23T15:18:35.199Z,3.62
2018-11-23T15:21:05.184Z,3.49
2018-11-23T15:23:34.881Z,3.33
2018-11-23T15:26:04.791Z,3.20
2018-11-23T15:28:34.479Z,3.11
2018-11-23T15:31:04.141Z,3.06
2018-11-23T15:33:33.809Z,3.23
2018-11-23T15:36:03.468Z,3.33
2018-11-23T15:38:33.149Z,3.58
2018-11-23T15:41:02.805Z,3.54
2018-11-23T15:43:32.488Z,3.55
2018-11-23T15:46:02.132Z,3.56
2018-11-23T15:48:31.785Z,3.79
2018-11-23T15:51:06.447Z,4.25
2018-11-23T15:53:36.277Z,4.48
2018-11-23T15:56:05.993Z,4.43
2018-11-23T15:58:35.668Z,4.42
2018-11-23T16:01:05.444Z,4.33
2018-11-23T16:03:35.109Z,4.28
2018-11-23T16:06:05.190Z,4.37
2018-11-23T16:08:34.885Z,4.32
2018-11-23T16:11:04.564Z,4.32
2018-11-23T16:13:34.220Z,4.20
2018-11-23T16:16:03.885Z,4.15
2018-11-23T16:18:33.536Z,4.06
2018-11-23T16:21:03.197Z,3.95
2018-11-23T16:23:32.840Z,3.87
2018-11-23T16:26:02.598Z,3.85
2018-11-23T16:28:32.343Z,3.79
2018-11-23T16:31:01.999Z,3.83
2018-11-23T16:33:31.709Z,3.79
2018-11-23T16:36:01.362Z,3.77
2018-11-23T16:38:31.058Z,3.82
2018-11-23T16:41:00.719Z,3.68
2018-11-23T16:43:30.364Z,3.59
2018-11-23T16:46:00.100Z,3.53
2018-11-23T16:48:29.803Z,3.45
2018-11-23T16:50:59.440Z,3.43
2018-11-23T16:53:29.112Z,3.36
2018-11-23T16:55:58.836Z,3.31
2018-11-23T16:58:28.556Z,3.31
2018-11-23T17:00:58.284Z,3.23
2018-11-23T17:03:28.016Z,3.19
2018-11-23T17:05:57.678Z,2.81
2018-11-23T17:08:27.522Z,2.92
2018-11-23T17:10:57.163Z,2.87
2018-11-23T17:13:26.818Z,2.84
2018-11-23T17:15:56.467Z,2.70
2018-11-23T17:18:26.121Z,2.64
2018-11-23T17:20:56.660Z,2.68
2018-11-23T17:23:25.410Z,2.69
2018-11-23T17:25:55.155Z,2.79
2018-11-23T17:28:24.808Z,2.70
2018-11-23T17:30:54.447Z,2.66
2018-11-23T17:33:24.107Z,2.92
2018-11-23T17:35:53.765Z,3.01
2018-11-23T17:38:23.415Z,3.01
2018-11-23T17:40:53.098Z,2.90
2018-11-23T17:43:22.887Z,2.92
2018-11-23T17:45:52.539Z,2.76
2018-11-23T17:48:22.224Z,2.81
2018-11-23T17:50:51.893Z,2.78
2018-11-23T17:53:21.531Z,2.73
2018-11-23T17:55:51.270Z,2.65
2018-11-23T17:58:20.916Z,2.88
2018-11-23T18:00:50.592Z,2.91
2018-11-23T18:03:20.297Z,2.80
2018-11-23T18:05:50.017Z,2.69
2018-11-23T18:08:19.658Z,2.73
2018-11-23T18:10:49.310Z,2.68
2018-11-23T18:13:18.957Z,2.65
2018-11-23T18:15:49.296Z,2.60
2018-11-23T18:18:18.965Z,2.60
2018-11-23T18:20:48.691Z,2.54
2018-11-23T18:23:18.340Z,2.52
2018-11-23T18:25:48.675Z,2.55
2018-11-23T18:28:18.380Z,2.63
2018-11-23T18:30:48.141Z,2.56
2018-11-23T18:33:17.780Z,2.60
2018-11-23T18:35:47.691Z,2.49
2018-11-23T18:38:17.352Z,2.46
2018-11-23T18:40:47.000Z,2.49
2018-11-23T18:43:16.663Z,2.52
2018-11-23T18:45:46.316Z,2.59
2018-11-23T18:48:16.109Z,2.55
2018-11-23T18:50:46.063Z,2.52
2018-11-23T18:53:15.704Z,2.45
2018-11-23T18:55:45.365Z,2.47
2018-11-23T18:58:15.020Z,2.41
2018-11-23T19:00:44.780Z,2.55
2018-11-23T19:03:14.459Z,2.49
2018-11-23T19:05:44.184Z,2.47
2018-11-23T19:08:13.846Z,2.41
2018-11-23T19:10:43.501Z,2.38
2018-11-23T19:13:13.140Z,2.42
2018-11-23T19:15:42.799Z,2.38
2018-11-23T19:18:12.444Z,2.32
2018-11-23T19:20:42.141Z,2.36
2018-11-23T19:23:11.846Z,2.43
2018-11-23T19:25:41.773Z,2.47
2018-11-23T19:28:11.424Z,2.38
2018-11-23T19:30:41.084Z,2.34
2018-11-23T19:33:10.741Z,2.47
2018-11-23T19:35:40.388Z,2.28
2018-11-23T19:38:10.044Z,2.24
2018-11-23T19:40:39.721Z,2.24
2018-11-23T19:43:09.416Z,2.23
2018-11-23T19:45:39.144Z,2.21
2018-11-23T19:48:08.815Z,2.20
2018-11-23T19:50:38.561Z,2.20
2018-11-23T19:53:08.216Z,2.22
2018-11-23T19:55:37.869Z,2.24
2018-11-23T19:58:07.544Z,2.22
2018-11-23T20:00:37.168Z,2.30
2018-11-23T20:03:06.834Z,2.36
2018-11-23T20:05:36.921Z,2.31
2018-11-23T20:08:06.620Z,2.35
2018-11-23T20:10:36.273Z,2.29
2018-11-23T20:13:06.139Z,2.32
2018-11-23T20:15:35.817Z,2.31
2018-11-23T20:18:06.183Z,2.41
2018-11-23T20:20:35.834Z,2.38
2018-11-23T20:23:05.588Z,2.50
2018-11-23T20:25:35.241Z,2.44
2018-11-23T20:28:04.906Z,2.45
2018-11-23T20:30:34.568Z,2.38
2018-11-23T20:33:04.235Z,2.34
2018-11-23T20:35:33.879Z,2.34
2018-11-23T20:38:03.544Z,2.31
2018-11-23T20:40:33.205Z,2.32
2018-11-23T20:43:02.887Z,2.35
2018-11-23T20:45:32.546Z,2.34
2018-11-23T20:48:02.200Z,2.33
2018-11-23T20:50:31.888Z,2.33
2018-11-23T20:53:01.596Z,2.39
2018-11-23T20:55:31.288Z,2.35
2018-11-23T20:58:00.967Z,2.30
2018-11-23T21:00:30.621Z,2.30
2018-11-23T21:03:00.292Z,2.28
2018-11-23T21:05:30.178Z,2.27
2018-11-23T21:07:59.841Z,2.26
2018-11-23T21:10:29.517Z,2.30
2018-11-23T21:12:59.319Z,2.26
2018-11-23T21:15:30.043Z,2.25
2018-11-23T21:18:01.962Z,2.22
2018-11-23T21:20:31.628Z,2.27
2018-11-23T21:23:01.397Z,2.37
2018-11-23T21:25:31.040Z,2.32
2018-11-23T21:28:00.816Z,2.38
2018-11-23T21:30:30.471Z,2.29
2018-11-23T21:33:00.133Z,2.28
2018-11-23T21:35:30.322Z,2.24
2018-11-23T21:37:59.992Z,2.18
2018-11-23T21:40:29.638Z,2.14
2018-11-23T21:42:59.336Z,2.07
2018-11-23T21:45:29.080Z,1.98
2018-11-23T21:47:58.736Z,1.93
2018-11-23T21:50:28.387Z,1.85
2018-11-23T21:52:58.050Z,1.79
2018-11-23T21:55:27.692Z,1.79
2018-11-23T21:57:57.368Z,1.73
2018-11-23T22:00:27.020Z,1.78
2018-11-23T22:02:56.728Z,1.71
2018-11-23T22:05:26.452Z,1.74
2018-11-23T22:07:56.138Z,1.75
2018-11-23T22:10:25.888Z,1.73
2018-11-23T22:12:55.560Z,1.67
2018-11-23T22:15:25.528Z,1.66
2018-11-23T22:17:56.309Z,1.66
2018-11-23T22:20:26.260Z,1.60
2018-11-23T22:23:02.112Z,1.54
2018-11-23T22:25:31.814Z,1.44
2018-11-23T22:28:01.456Z,1.47
2018-11-23T22:30:31.328Z,1.39
2018-11-23T22:33:01.001Z,1.43
2018-11-23T22:35:30.791Z,1.42
2018-11-23T22:38:00.483Z,1.37
2018-11-23T22:40:30.161Z,1.27
2018-11-23T22:42:59.916Z,1.31
2018-11-23T22:45:29.618Z,1.29
2018-11-23T22:47:59.243Z,1.28
2018-11-23T22:50:28.923Z,1.36
2018-11-23T22:52:58.567Z,1.31
2018-11-23T22:55:28.344Z,1.33
2018-11-23T22:57:58.014Z,1.33
2018-11-23T23:00:33.025Z,1.33
2018-11-23T23:03:02.682Z,1.34
2018-11-23T23:05:32.349Z,1.40
2018-11-23T23:08:02.013Z,1.49
2018-11-23T23:10:31.680Z,1.60
2018-11-23T23:13:01.345Z,1.68
2018-11-23T23:15:31.007Z,1.70
2018-11-23T23:18:00.664Z,1.77
2018-11-23T23:20:30.328Z,1.80
2018-11-23T23:22:59.996Z,1.87
2018-11-23T23:25:29.725Z,2.00
2018-11-23T23:27:59.424Z,2.15
2018-11-23T23:30:29.086Z,2.21
2018-11-23T23:32:58.770Z,2.22
2018-11-23T23:35:28.410Z,2.24
2018-11-23T23:37:58.085Z,2.30
2018-11-23T23:40:27.768Z,2.40
2018-11-23T23:42:57.416Z,2.39
2018-11-23T23:45:27.081Z,2.44
2018-11-23T23:47:57.040Z,2.47
2018-11-23T23:50:26.692Z,2.47
2018-11-23T23:52:56.343Z,2.47
2018-11-23T23:55:26.001Z,2.55
2018-11-23T23:57:55.725Z,2.63
